In Rescue
 
Open Full Screen Window  High Contrast Mode
Wind Gusting 00 knots
09
May 25, 2022 8:34 PM CDT
Weather Information
Wind Direction
  090 °
Wind Speed
  09 kt (10 mph)
Wind Gust
  00 kt (0 mph)
Altimeter
29.96 in
Visibility
10 SM
Temperature
12° C
54° F
Dewpoint
05° C
41° F
Humidity
63%
1hr Rain Fall
00.00 in.
24hr Rain Fall
00.00 in.
Sky Condition
Clear
VFR

METAR K3N8 260134Z AUTO 09009KT 10SM CLR 12/05 A2996 RMK AO2 T01150052

FAA Disclaimer: The data displayed is for advisory purposes only and is not to be used for flight planning or operations.